createdAt,value
2023-03-19T00:00:32.381Z,44.40
2023-03-19T00:03:00.669Z,36.35
2023-03-19T00:05:28.899Z,35.35
2023-03-19T00:07:56.886Z,37.47
2023-03-19T00:10:27.071Z,36.00
2023-03-19T00:12:55.088Z,29.23
2023-03-19T00:15:23.047Z,28.67
2023-03-19T00:17:51.606Z,32.47
2023-03-19T00:20:20.426Z,33.25
2023-03-19T00:22:48.475Z,34.25
2023-03-19T00:25:16.547Z,33.90
2023-03-19T00:27:46.371Z,32.83
2023-03-19T00:30:15.013Z,36.13
2023-03-19T00:32:43.133Z,32.22
2023-03-19T00:35:11.865Z,32.67
2023-03-19T00:37:40.112Z,32.58
2023-03-19T00:40:10.277Z,33.70
2023-03-19T00:42:38.294Z,34.63
2023-03-19T00:45:09.122Z,32.60
2023-03-19T00:47:37.161Z,32.58
2023-03-19T00:50:06.472Z,31.10
2023-03-19T00:52:34.463Z,30.77
2023-03-19T00:55:02.505Z,31.25
2023-03-19T00:57:30.523Z,32.40
2023-03-19T00:59:58.508Z,31.75
2023-03-19T01:02:28.109Z,27.48
2023-03-19T01:04:56.159Z,34.22
2023-03-19T01:07:24.165Z,30.38
2023-03-19T01:09:52.133Z,28.80
2023-03-19T01:12:20.425Z,36.13
2023-03-19T01:14:48.543Z,30.95
2023-03-19T01:17:16.600Z,34.53
2023-03-19T01:19:46.022Z,35.42
2023-03-19T01:22:16.207Z,39.08
2023-03-19T01:24:44.270Z,38.38
2023-03-19T01:27:12.590Z,40.05
2023-03-19T01:29:40.781Z,34.45
2023-03-19T01:32:08.894Z,38.95
2023-03-19T01:34:37.127Z,34.75
2023-03-19T01:37:06.555Z,37.38
2023-03-19T01:39:34.739Z,37.70
2023-03-19T01:42:03.785Z,37.55
2023-03-19T01:44:34.049Z,36.83
2023-03-19T01:47:05.809Z,37.42
2023-03-19T01:49:34.171Z,34.42
2023-03-19T01:52:06.074Z,33.25
2023-03-19T01:54:36.583Z,34.63
2023-03-19T01:57:08.457Z,37.40
2023-03-19T01:59:40.568Z,38.85
2023-03-19T02:02:14.419Z,37.58
2023-03-19T02:04:46.063Z,38.92
2023-03-19T02:07:15.760Z,34.25
2023-03-19T02:09:45.386Z,41.63
2023-03-19T02:12:14.084Z,40.65
2023-03-19T02:14:42.145Z,40.67
2023-03-19T02:17:10.332Z,40.85
2023-03-19T02:19:47.121Z,41.85
2023-03-19T02:22:17.713Z,40.22
2023-03-19T02:24:53.914Z,36.85
2023-03-19T02:27:23.760Z,46.38
2023-03-19T02:29:52.055Z,50.25
2023-03-19T02:32:20.142Z,48.85
2023-03-19T02:34:49.161Z,31.90
2023-03-19T02:37:20.689Z,41.05
2023-03-19T02:39:55.779Z,41.87
2023-03-19T02:42:27.189Z,51.60
2023-03-19T02:44:55.213Z,50.95
2023-03-19T02:47:23.576Z,54.50
2023-03-19T02:49:51.685Z,47.70
2023-03-19T02:52:19.963Z,52.97
2023-03-19T02:54:48.492Z,62.85
2023-03-19T02:57:16.526Z,46.53
2023-03-19T02:59:46.358Z,38.20
2023-03-19T03:02:15.285Z,45.47
2023-03-19T03:04:43.397Z,50.35
2023-03-19T03:07:11.624Z,54.10
2023-03-19T03:09:39.676Z,49.97
2023-03-19T03:12:08.388Z,54.92
2023-03-19T03:14:36.533Z,53.45
2023-03-19T03:17:06.049Z,49.83
2023-03-19T03:19:34.196Z,56.20
2023-03-19T03:22:02.234Z,50.50
2023-03-19T03:24:30.300Z,50.65
2023-03-19T03:26:58.273Z,46.50
2023-03-19T03:29:26.417Z,38.63
2023-03-19T03:31:54.465Z,44.20
2023-03-19T03:34:23.796Z,40.58
2023-03-19T03:36:52.122Z,47.38
2023-03-19T03:39:20.164Z,48.17
2023-03-19T03:41:48.106Z,44.33
2023-03-19T03:44:16.365Z,45.50
2023-03-19T03:46:44.773Z,48.97
2023-03-19T03:49:13.268Z,49.78
2023-03-19T03:51:42.625Z,52.80
2023-03-19T03:54:10.613Z,51.92
2023-03-19T03:56:38.597Z,51.58
2023-03-19T03:59:07.466Z,54.95
2023-03-19T04:01:35.532Z,55.63
2023-03-19T04:04:03.756Z,53.88
2023-03-19T04:06:31.904Z,51.47
2023-03-19T04:09:02.391Z,51.30
2023-03-19T04:11:30.648Z,50.35
2023-03-19T04:13:58.740Z,48.70
2023-03-19T04:16:28.710Z,52.45
2023-03-19T04:18:56.789Z,52.20
2023-03-19T04:21:24.801Z,54.90
2023-03-19T04:23:52.764Z,56.97
2023-03-19T04:26:22.193Z,53.40
2023-03-19T04:28:50.192Z,55.05
2023-03-19T04:31:18.242Z,54.65
2023-03-19T04:33:46.656Z,57.58
2023-03-19T04:36:14.726Z,54.17
2023-03-19T04:38:42.720Z,54.15
2023-03-19T04:41:10.920Z,64.03
2023-03-19T04:43:40.304Z,66.05
2023-03-19T04:46:08.525Z,65.78
2023-03-19T04:48:39.438Z,62.92
2023-03-19T04:51:09.271Z,69.15
2023-03-19T04:53:37.807Z,70.82
2023-03-19T04:56:06.989Z,67.50
2023-03-19T04:58:35.051Z,69.90
2023-03-19T05:01:04.592Z,72.65
2023-03-19T05:03:32.623Z,67.50
2023-03-19T05:06:00.697Z,68.97
2023-03-19T05:08:28.950Z,64.22
2023-03-19T05:10:57.168Z,63.72
2023-03-19T05:13:25.125Z,60.55
2023-03-19T05:15:55.092Z,64.75
2023-03-19T05:18:24.611Z,59.80
2023-03-19T05:20:53.398Z,64.90
2023-03-19T05:23:21.568Z,60.33
2023-03-19T05:25:49.698Z,73.00
2023-03-19T05:28:18.182Z,65.60
2023-03-19T05:30:46.689Z,72.82
2023-03-19T05:33:14.876Z,76.03
2023-03-19T05:35:44.670Z,75.20
2023-03-19T05:38:13.139Z,83.80
2023-03-19T05:40:42.021Z,86.32
2023-03-19T05:43:10.523Z,81.00
2023-03-19T05:45:39.161Z,82.65
2023-03-19T05:48:09.076Z,117.85
2023-03-19T05:50:37.180Z,76.10
2023-03-19T05:53:06.674Z,93.28
2023-03-19T05:55:34.702Z,104.00
2023-03-19T05:58:02.752Z,99.35
2023-03-19T06:00:30.919Z,99.45
2023-03-19T06:02:59.000Z,101.57
2023-03-19T06:05:27.131Z,116.00
2023-03-19T06:07:55.448Z,125.60
2023-03-19T06:10:24.831Z,154.00
2023-03-19T06:12:52.914Z,145.88
2023-03-19T06:15:21.151Z,152.52
2023-03-19T06:17:49.344Z,134.95
2023-03-19T06:20:17.789Z,107.32
2023-03-19T06:22:46.060Z,156.07
2023-03-19T06:25:14.133Z,109.93
2023-03-19T06:27:43.718Z,97.30
2023-03-19T06:30:13.145Z,104.80
2023-03-19T06:32:41.810Z,110.35
2023-03-19T06:35:10.919Z,112.65
2023-03-19T06:37:38.977Z,121.85
2023-03-19T06:40:08.001Z,119.43
2023-03-19T06:42:36.528Z,135.90
2023-03-19T06:45:07.633Z,115.15
2023-03-19T06:47:35.729Z,105.43
2023-03-19T06:50:04.521Z,111.57
2023-03-19T06:52:32.627Z,108.20
2023-03-19T06:55:00.743Z,118.50
2023-03-19T06:57:28.931Z,115.68
2023-03-19T06:59:57.034Z,111.18
2023-03-19T07:02:26.749Z,111.65
2023-03-19T07:04:54.846Z,102.68
2023-03-19T07:07:22.935Z,92.05
2023-03-19T07:09:51.346Z,98.50
2023-03-19T07:12:19.368Z,90.47
2023-03-19T07:14:47.404Z,84.82
2023-03-19T07:17:15.779Z,87.75
2023-03-19T07:19:45.477Z,82.53
2023-03-19T07:22:13.518Z,82.55
2023-03-19T07:24:41.571Z,83.90
2023-03-19T07:27:10.109Z,79.63
2023-03-19T07:29:38.234Z,81.47
2023-03-19T07:32:06.972Z,80.72
2023-03-19T07:34:35.652Z,78.40
2023-03-19T07:37:05.165Z,80.10
2023-03-19T07:39:33.393Z,82.13
2023-03-19T07:42:01.458Z,76.68
2023-03-19T07:44:29.416Z,75.22
2023-03-19T07:46:57.442Z,77.22
2023-03-19T07:49:25.802Z,85.80
2023-03-19T07:51:53.881Z,77.80
2023-03-19T07:54:23.679Z,76.05
2023-03-19T07:56:51.740Z,82.47
2023-03-19T07:59:19.867Z,84.18
2023-03-19T08:01:47.910Z,83.03
2023-03-19T08:04:16.664Z,90.63
2023-03-19T08:06:44.772Z,88.00
2023-03-19T08:09:13.316Z,95.50
2023-03-19T08:11:42.695Z,86.10
2023-03-19T08:14:10.899Z,98.00
2023-03-19T08:16:39.254Z,93.95
2023-03-19T08:19:07.254Z,107.32
2023-03-19T08:21:35.241Z,102.03
2023-03-19T08:24:05.004Z,105.18
2023-03-19T08:26:33.448Z,82.93
2023-03-19T08:29:04.102Z,99.53
2023-03-19T08:31:32.504Z,91.22
2023-03-19T08:34:03.143Z,89.28
2023-03-19T08:36:31.257Z,83.70
2023-03-19T08:38:59.630Z,89.82
2023-03-19T08:41:27.648Z,93.15
2023-03-19T08:43:55.680Z,90.45
2023-03-19T08:46:25.501Z,86.05
2023-03-19T08:48:53.553Z,79.78
2023-03-19T08:51:21.592Z,88.85
2023-03-19T08:53:49.585Z,84.90
2023-03-19T08:56:17.551Z,88.50
2023-03-19T08:58:45.563Z,94.53
2023-03-19T09:01:14.708Z,95.75
2023-03-19T09:03:45.333Z,77.65
2023-03-19T09:06:15.535Z,81.95
2023-03-19T09:08:44.240Z,78.25
2023-03-19T09:11:14.368Z,74.88
2023-03-19T09:13:42.463Z,72.68
2023-03-19T09:16:11.029Z,68.75
2023-03-19T09:18:39.104Z,66.90
2023-03-19T09:21:08.641Z,64.78
2023-03-19T09:23:36.759Z,56.70
2023-03-19T09:26:05.049Z,59.22
2023-03-19T09:28:33.196Z,55.92
2023-03-19T09:31:06.947Z,55.45
2023-03-19T09:33:35.333Z,53.25
2023-03-19T09:36:03.622Z,54.78
2023-03-19T09:38:33.598Z,52.28
2023-03-19T09:41:11.316Z,52.10
2023-03-19T09:44:02.203Z,50.40
2023-03-19T09:46:43.243Z,50.78
2023-03-19T09:49:18.001Z,47.95
2023-03-19T09:51:49.630Z,54.22
2023-03-19T09:54:28.859Z,49.75
2023-03-19T09:56:57.356Z,47.53
2023-03-19T09:59:28.288Z,59.50
2023-03-19T10:02:06.486Z,55.17
2023-03-19T10:04:43.180Z,58.45
2023-03-19T10:07:24.034Z,51.15
2023-03-19T10:10:16.229Z,48.63
2023-03-19T10:12:58.131Z,52.83
2023-03-19T10:15:30.479Z,50.05
2023-03-19T10:20:44.543Z,53.45
2023-03-19T10:23:36.613Z,52.28
2023-03-19T10:26:10.544Z,46.60
2023-03-19T10:28:39.991Z,54.28
2023-03-19T10:31:29.494Z,62.40
2023-03-19T10:34:13.273Z,67.85
2023-03-19T10:36:41.636Z,61.10
2023-03-19T10:39:09.905Z,57.45
2023-03-19T10:41:51.323Z,58.75
2023-03-19T10:44:30.698Z,52.90
2023-03-19T10:47:00.268Z,55.75
2023-03-19T10:49:28.388Z,56.88
2023-03-19T10:51:59.507Z,54.15
2023-03-19T10:54:31.479Z,51.22
2023-03-19T10:57:02.252Z,55.25
2023-03-19T10:59:37.436Z,54.58
2023-03-19T11:02:18.278Z,53.55
2023-03-19T11:04:46.787Z,52.80
2023-03-19T11:07:19.281Z,47.53
2023-03-19T11:09:49.449Z,50.67
2023-03-19T11:12:23.086Z,53.50
2023-03-19T11:14:53.636Z,54.50
2023-03-19T11:17:24.588Z,44.17
2023-03-19T11:19:55.103Z,45.65
2023-03-19T11:22:25.564Z,51.08
2023-03-19T11:24:55.772Z,54.13
2023-03-19T11:27:34.787Z,53.42
2023-03-19T11:30:03.977Z,49.17
2023-03-19T11:32:57.832Z,54.95
2023-03-19T11:35:29.591Z,49.22
2023-03-19T11:38:00.686Z,51.05
2023-03-19T11:40:37.458Z,52.78
2023-03-19T11:43:29.365Z,60.35
2023-03-19T11:46:06.491Z,57.08
2023-03-19T11:48:57.530Z,57.35
2023-03-19T11:51:31.989Z,58.17
2023-03-19T11:54:07.757Z,50.45
2023-03-19T11:56:44.062Z,48.35
2023-03-19T11:59:36.842Z,61.95
2023-03-19T12:02:34.992Z,60.45
2023-03-19T12:05:22.246Z,52.25
2023-03-19T12:08:05.744Z,50.92
2023-03-19T12:10:44.120Z,55.97
2023-03-19T12:13:25.027Z,58.88
2023-03-19T12:16:01.751Z,58.58
2023-03-19T12:18:48.420Z,55.38
2023-03-19T12:21:24.353Z,56.90
2023-03-19T12:24:04.003Z,56.35
2023-03-19T12:26:42.762Z,56.70
2023-03-19T12:29:22.225Z,53.63
2023-03-19T12:32:17.977Z,50.75
2023-03-19T12:34:51.106Z,45.47
2023-03-19T12:37:25.191Z,46.15
2023-03-19T12:40:04.738Z,41.08
2023-03-19T12:42:38.785Z,33.42
2023-03-19T12:45:20.972Z,34.08
2023-03-19T12:47:52.464Z,36.28
2023-03-19T12:50:21.567Z,31.60
2023-03-19T12:52:52.843Z,30.05
2023-03-19T12:55:24.027Z,39.45
2023-03-19T12:57:55.793Z,26.38
2023-03-19T13:00:29.668Z,35.50
2023-03-19T13:03:07.530Z,32.75
2023-03-19T13:05:41.718Z,28.85
2023-03-19T13:08:17.902Z,31.70
2023-03-19T13:10:46.141Z,27.67
2023-03-19T13:13:29.782Z,30.30
2023-03-19T13:16:02.747Z,28.67
2023-03-19T13:18:40.437Z,27.33
2023-03-19T13:21:21.579Z,23.98
2023-03-19T13:23:53.308Z,23.30
2023-03-19T13:26:21.473Z,24.42
2023-03-19T13:29:01.581Z,22.35
2023-03-19T13:31:34.941Z,23.08
2023-03-19T13:34:07.680Z,20.30
2023-03-19T13:36:39.445Z,21.13
2023-03-19T13:39:15.755Z,22.15
2023-03-19T13:41:53.577Z,28.48
2023-03-19T13:44:36.996Z,33.30
2023-03-19T13:47:38.479Z,26.63
2023-03-19T13:50:31.660Z,33.22
2023-03-19T13:53:24.480Z,31.13
2023-03-19T13:55:55.944Z,26.15
2023-03-19T13:58:44.395Z,23.27
2023-03-19T14:01:33.784Z,30.20
2023-03-19T14:04:03.299Z,30.25
2023-03-19T14:06:37.225Z,28.58
2023-03-19T14:09:06.938Z,27.60
2023-03-19T14:11:37.787Z,24.15
2023-03-19T14:14:08.571Z,26.35
2023-03-19T14:16:39.402Z,18.55
2023-03-19T14:19:13.697Z,18.60
2023-03-19T14:21:47.436Z,19.38
2023-03-19T14:27:22.566Z,14.15
2023-03-19T14:32:22.372Z,17.23
2023-03-19T14:34:51.559Z,13.87
2023-03-19T14:37:25.118Z,14.15
2023-03-19T14:40:00.484Z,15.18
2023-03-19T14:42:33.499Z,13.18
2023-03-19T14:45:36.157Z,13.98
2023-03-19T14:48:27.013Z,11.85
2023-03-19T14:51:27.116Z,12.57
2023-03-19T14:53:59.766Z,12.65
2023-03-19T14:56:32.224Z,13.75
2023-03-19T14:59:03.840Z,15.32
2023-03-19T15:01:34.188Z,15.80
2023-03-19T15:04:04.269Z,18.40
2023-03-19T15:06:36.161Z,21.17
2023-03-19T15:09:08.193Z,20.95
2023-03-19T15:11:55.851Z,22.73
2023-03-19T15:14:45.428Z,24.02
2023-03-19T15:17:22.363Z,22.60
2023-03-19T15:19:51.226Z,22.08
2023-03-19T15:22:22.083Z,19.67
2023-03-19T15:24:51.790Z,16.55
2023-03-19T15:27:22.089Z,17.40
2023-03-19T15:29:51.758Z,18.50
2023-03-19T15:32:50.902Z,19.35
2023-03-19T15:35:24.359Z,19.42
2023-03-19T15:37:55.912Z,18.70
2023-03-19T15:40:30.215Z,19.90
2023-03-19T15:43:01.423Z,23.55
2023-03-19T15:45:31.375Z,21.63
2023-03-19T15:48:04.738Z,22.85
2023-03-19T15:50:36.944Z,21.13
2023-03-19T15:55:38.157Z,24.25
2023-03-19T15:58:09.756Z,27.83
2023-03-19T16:00:41.119Z,35.83
2023-03-19T16:03:17.360Z,30.60
2023-03-19T16:05:45.887Z,30.83
2023-03-19T16:08:20.977Z,37.58
2023-03-19T16:10:50.678Z,34.80
2023-03-19T16:13:31.775Z,140.07
2023-03-19T16:16:06.669Z,26.67
2023-03-19T16:18:45.626Z,29.40
2023-03-19T16:21:17.634Z,25.17
2023-03-19T16:23:50.970Z,28.75
2023-03-19T16:26:24.673Z,33.08
2023-03-19T16:29:00.152Z,28.98
2023-03-19T16:31:32.040Z,31.30
2023-03-19T16:34:00.638Z,29.77
2023-03-19T16:36:33.727Z,33.92
2023-03-19T16:39:24.432Z,35.08
2023-03-19T16:42:17.479Z,34.55
2023-03-19T16:44:48.354Z,35.35
2023-03-19T16:47:17.073Z,29.33
2023-03-19T16:49:46.963Z,30.67
2023-03-19T16:52:17.894Z,31.85
2023-03-19T16:54:46.461Z,31.58
2023-03-19T16:57:18.202Z,30.30
2023-03-19T16:59:47.624Z,29.23
2023-03-19T17:02:17.519Z,24.73
2023-03-19T17:04:46.287Z,27.73
2023-03-19T17:07:14.649Z,27.77
2023-03-19T17:09:42.885Z,29.00
2023-03-19T17:12:17.775Z,47.95
2023-03-19T17:14:46.091Z,27.98
2023-03-19T17:17:19.593Z,42.20
2023-03-19T17:19:48.048Z,34.95
2023-03-19T17:22:16.235Z,21.60
2023-03-19T17:24:44.565Z,17.15
2023-03-19T17:27:12.785Z,14.55
2023-03-19T17:29:42.121Z,19.50
2023-03-19T17:32:18.724Z,31.75
2023-03-19T17:34:47.261Z,19.75
2023-03-19T17:37:15.764Z,24.08
2023-03-19T17:39:45.781Z,23.15
2023-03-19T17:42:19.313Z,22.48
2023-03-19T17:44:48.706Z,25.30
2023-03-19T17:47:18.446Z,25.45
2023-03-19T17:49:47.305Z,20.13
2023-03-19T17:52:16.810Z,21.70
2023-03-19T17:54:44.929Z,25.17
2023-03-19T17:57:15.496Z,18.15
2023-03-19T17:59:43.900Z,17.20
2023-03-19T18:02:25.588Z,23.20
2023-03-19T18:04:53.652Z,18.40
2023-03-19T18:07:21.710Z,21.70
2023-03-19T18:09:49.806Z,23.83
2023-03-19T18:12:20.389Z,19.70
2023-03-19T18:14:48.399Z,33.63
2023-03-19T18:17:18.920Z,113.78
2023-03-19T18:19:50.777Z,34.03
2023-03-19T18:22:20.237Z,26.05
2023-03-19T18:24:48.232Z,18.35
2023-03-19T18:27:16.297Z,27.88
2023-03-19T18:29:44.323Z,16.27
2023-03-19T18:32:16.076Z,16.77
2023-03-19T18:34:45.529Z,50.10
2023-03-19T18:37:18.020Z,27.63
2023-03-19T18:39:46.276Z,19.05
2023-03-19T18:42:15.259Z,22.10
2023-03-19T18:44:43.535Z,14.25
2023-03-19T18:47:15.388Z,16.27
2023-03-19T18:49:45.952Z,11.27
2023-03-19T18:52:19.318Z,29.15
2023-03-19T18:54:47.939Z,15.90
2023-03-19T18:57:16.776Z,17.25
2023-03-19T18:59:44.899Z,13.88
2023-03-19T19:02:26.833Z,24.40
2023-03-19T19:04:56.221Z,21.67
2023-03-19T19:07:24.251Z,17.40
2023-03-19T19:09:52.244Z,25.15
2023-03-19T19:12:20.569Z,16.80
2023-03-19T19:14:48.650Z,18.02
2023-03-19T19:17:18.418Z,16.80
2023-03-19T19:19:46.614Z,13.35
2023-03-19T19:22:17.777Z,15.43
2023-03-19T19:24:46.131Z,22.98
2023-03-19T19:27:19.231Z,20.25
2023-03-19T19:29:47.910Z,15.80
2023-03-19T19:32:20.724Z,21.40
2023-03-19T19:34:48.729Z,25.10
2023-03-19T19:37:19.391Z,21.65
2023-03-19T19:39:47.340Z,24.00
2023-03-19T19:42:16.855Z,21.05
2023-03-19T19:44:49.738Z,21.10
2023-03-19T19:47:18.567Z,15.48
2023-03-19T19:49:46.608Z,18.73
2023-03-19T19:52:17.133Z,21.70
2023-03-19T19:54:46.766Z,22.08
2023-03-19T19:57:22.778Z,19.50
2023-03-19T19:59:52.022Z,17.73
2023-03-19T20:02:21.639Z,21.15
2023-03-19T20:04:50.225Z,18.25
2023-03-19T20:07:18.328Z,20.33
2023-03-19T20:09:47.995Z,22.58
2023-03-19T20:12:20.561Z,23.23
2023-03-19T20:14:49.108Z,24.85
2023-03-19T20:17:18.002Z,19.80
2023-03-19T20:19:46.447Z,20.38
2023-03-19T20:22:14.474Z,22.60
2023-03-19T20:24:42.752Z,21.77
2023-03-19T20:27:19.374Z,25.23
2023-03-19T20:29:47.419Z,29.38
2023-03-19T20:32:27.990Z,18.65
2023-03-19T20:34:56.030Z,21.20
2023-03-19T20:37:24.023Z,21.38
2023-03-19T20:39:52.024Z,16.52
2023-03-19T20:42:21.537Z,21.75
2023-03-19T20:44:50.513Z,18.63
2023-03-19T20:47:20.558Z,16.25
2023-03-19T20:49:48.994Z,20.02
2023-03-19T20:52:17.168Z,21.48
2023-03-19T20:54:45.710Z,17.77
2023-03-19T20:57:15.533Z,19.10
2023-03-19T20:59:46.899Z,18.67
2023-03-19T21:02:17.094Z,19.48
2023-03-19T21:04:45.630Z,19.50
2023-03-19T21:07:28.613Z,22.30
2023-03-19T21:09:57.070Z,22.52
2023-03-19T21:12:29.327Z,20.48
2023-03-19T21:14:59.423Z,19.58
2023-03-19T21:17:28.797Z,22.30
2023-03-19T21:19:57.342Z,26.88
2023-03-19T21:22:29.413Z,25.60
2023-03-19T21:25:03.280Z,19.20
2023-03-19T21:27:33.091Z,23.35
2023-03-19T21:30:02.757Z,23.77
2023-03-19T21:32:31.710Z,25.00
2023-03-19T21:35:00.046Z,23.20
2023-03-19T21:37:28.213Z,19.95
2023-03-19T21:39:56.391Z,21.88
2023-03-19T21:42:24.885Z,23.83
2023-03-19T21:45:00.697Z,21.88
2023-03-19T21:47:30.044Z,20.90
2023-03-19T21:50:00.492Z,24.48
2023-03-19T21:52:57.580Z,27.63
2023-03-19T21:55:27.840Z,21.13
2023-03-19T21:57:58.711Z,23.15
2023-03-19T22:00:27.260Z,20.92
2023-03-19T22:02:58.010Z,20.38
2023-03-19T22:05:27.373Z,21.92
2023-03-19T22:07:56.153Z,21.08
2023-03-19T22:10:28.149Z,22.70
2023-03-19T22:12:56.280Z,22.10
2023-03-19T22:15:30.753Z,22.77
2023-03-19T22:18:00.274Z,18.48
2023-03-19T22:20:28.604Z,16.55
2023-03-19T22:22:57.578Z,22.23
2023-03-19T22:25:33.016Z,16.35
2023-03-19T22:28:01.252Z,19.65
2023-03-19T22:30:35.644Z,19.02
2023-03-19T22:33:13.508Z,17.58
2023-03-19T22:35:42.010Z,19.58
2023-03-19T22:38:10.089Z,17.40
2023-03-19T22:40:39.300Z,16.63
2023-03-19T22:43:18.362Z,20.42
2023-03-19T22:45:46.532Z,17.17
2023-03-19T22:48:18.100Z,14.98
2023-03-19T22:50:46.125Z,16.20
2023-03-19T22:53:22.161Z,12.98
2023-03-19T22:55:50.539Z,14.10
2023-03-19T22:58:18.762Z,12.45
2023-03-19T23:00:47.435Z,15.18
2023-03-19T23:03:21.388Z,15.70
2023-03-19T23:05:52.510Z,15.07
2023-03-19T23:08:20.658Z,17.80
2023-03-19T23:10:48.918Z,14.80
2023-03-19T23:13:16.955Z,19.48
2023-03-19T23:15:45.535Z,20.08
2023-03-19T23:18:20.220Z,18.88
2023-03-19T23:20:48.397Z,21.63
2023-03-19T23:23:18.074Z,18.38
2023-03-19T23:25:47.504Z,19.45
2023-03-19T23:28:20.462Z,19.20
2023-03-19T23:30:50.342Z,17.83
2023-03-19T23:33:21.297Z,20.20
2023-03-19T23:35:49.574Z,20.45
2023-03-19T23:38:18.384Z,21.73
2023-03-19T23:40:46.904Z,17.70
2023-03-19T23:43:19.824Z,19.23
2023-03-19T23:45:50.022Z,21.45
2023-03-19T23:48:21.880Z,22.38
2023-03-19T23:50:49.923Z,16.25
2023-03-19T23:53:20.363Z,23.10
2023-03-19T23:55:50.894Z,24.33
2023-03-19T23:58:19.931Z,19.77
